Time;durP1;ratioP1;P1;durP2;ratioP2;P2;SDS_P1;SDS_P2;PMS_P1;PMS_P2;Temp;Humidity;BMP_temperature;BMP_pressure;BME280_temperature;BME280_humidity;BME280_pressure;Samples;Min_cycle;Max_cycle;Signal;HPM_P1;HPM_P2
2021/10/11 00:03:36;;;;;;;39.55;23.95;;;;;;;6.98;77.11;101280.06;8467903;34;20295;-76
2021/10/11 00:08:39;;;;;;;43.38;24.33;;;;;;;7.04;76.72;101277.06;8470964;33;20459;-76
2021/10/11 00:13:42;;;;;;;41.80;25.10;;;;;;;7.00;76.84;101288.03;8469559;34;20452;-77
2021/10/11 00:18:48;;;;;;;46.17;24.67;;;;;;;7.04;77.27;101292.25;8474211;33;20414;-76
2021/10/11 00:23:51;;;;;;;40.88;24.95;;;;;;;7.11;77.08;101288.31;8481270;34;20735;-76
2021/10/11 00:28:54;;;;;;;41.95;23.13;;;;;;;7.15;76.31;101284.53;8480993;33;20157;-77
2021/10/11 00:33:58;;;;;;;36.08;22.63;;;;;;;7.11;76.48;101291.00;8468503;34;20232;-76
2021/10/11 00:39:01;;;;;;;47.80;27.65;;;;;;;7.22;76.18;101272.59;8444390;33;20623;-76
2021/10/11 00:44:05;;;;;;;48.90;26.13;;;;;;;7.30;77.13;101265.97;8463989;34;20417;-76
2021/10/11 00:49:10;;;;;;;46.42;26.95;;;;;;;7.41;77.09;101268.94;8461452;33;20509;-77
2021/10/11 00:54:15;;;;;;;43.08;25.98;;;;;;;7.46;77.04;101272.19;8460639;34;20209;-76
2021/10/11 00:59:18;;;;;;;45.55;26.35;;;;;;;7.51;76.17;101256.78;8461219;33;20390;-77
2021/10/11 01:04:22;;;;;;;52.30;27.58;;;;;;;7.56;76.60;101245.84;8462515;34;20158;-76
2021/10/11 01:09:25;;;;;;;46.40;25.83;;;;;;;7.67;76.50;101243.44;8462654;33;20435;-76
2021/10/11 01:14:29;;;;;;;49.72;27.63;;;;;;;7.75;75.13;101233.19;8463930;34;20505;-76
2021/10/11 01:19:34;;;;;;;47.40;28.15;;;;;;;7.73;75.31;101243.97;8478935;33;20414;-76
2021/10/11 01:24:38;;;;;;;53.50;28.80;;;;;;;7.79;75.47;101256.16;8480821;34;20173;-75
2021/10/11 01:29:41;;;;;;;53.67;28.83;;;;;;;7.92;75.28;101249.13;8482094;33;20467;-77
2021/10/11 01:34:44;;;;;;;38.53;23.33;;;;;;;8.00;74.86;101255.88;8481797;34;20437;-77
2021/10/11 01:39:49;;;;;;;39.97;23.13;;;;;;;8.03;74.46;101247.69;8476241;33;20541;-77
2021/10/11 01:44:52;;;;;;;33.17;20.50;;;;;;;7.83;75.11;101235.44;8466392;34;20156;-76
2021/10/11 01:49:56;;;;;;;32.08;18.95;;;;;;;7.53;76.20;101232.66;8466524;33;20235;-76
2021/10/11 01:55:00;;;;;;;37.00;21.48;;;;;;;7.43;77.41;101224.25;8465787;34;20215;-76
2021/10/11 02:00:07;;;;;;;42.38;23.77;;;;;;;7.48;78.18;101222.19;8465874;33;20486;-77
2021/10/11 02:05:12;;;;;;;39.35;23.75;;;;;;;7.51;78.87;101219.34;8443065;34;20413;-77
2021/10/11 02:10:16;;;;;;;42.20;25.15;;;;;;;7.65;79.80;101213.22;8448727;33;20149;-76
2021/10/11 02:15:19;;;;;;;55.03;25.63;;;;;;;7.69;80.41;101218.34;8480936;34;20453;-76
2021/10/11 02:20:22;;;;;;;44.05;26.48;;;;;;;7.67;80.68;101206.84;8494125;28;20470;-76
2021/10/11 02:25:26;;;;;;;49.47;28.63;;;;;;;7.76;81.65;101212.63;8486393;33;20446;-76
2021/10/11 02:30:29;;;;;;;41.92;25.13;;;;;;;7.80;81.82;101215.06;8462708;34;20136;-75
2021/10/11 02:35:33;;;;;;;37.60;23.20;;;;;;;7.73;82.32;101209.22;8433039;34;20146;-76
2021/10/11 02:40:39;;;;;;;40.20;23.95;;;;;;;7.70;82.47;101206.69;8436061;34;20563;-76
2021/10/11 02:45:43;;;;;;;42.03;23.90;;;;;;;7.68;83.01;101205.06;8432189;34;20225;-77
2021/10/11 02:50:46;;;;;;;53.95;29.45;;;;;;;7.69;83.29;101210.31;8411092;34;20178;-75
2021/10/11 02:55:50;;;;;;;64.18;32.88;;;;;;;7.75;83.81;101209.09;8436605;34;20915;-76
2021/10/11 03:00:53;;;;;;;63.92;33.80;;;;;;;7.74;84.27;101210.06;8427977;34;21024;-77
2021/10/11 03:05:57;;;;;;;65.38;33.50;;;;;;;7.57;85.18;101205.66;8417014;34;20555;-77
2021/10/11 03:11:02;;;;;;;64.60;35.45;;;;;;;7.75;85.67;101214.47;8389821;34;20196;-76
2021/10/11 03:16:05;;;;;;;66.63;33.45;;;;;;;7.77;85.18;101207.22;8400403;34;20201;-77
2021/10/11 03:21:08;;;;;;;62.30;34.13;;;;;;;7.97;85.36;101197.19;8412009;34;20707;-77
2021/10/11 03:26:13;;;;;;;69.70;34.55;;;;;;;7.93;85.19;101197.38;8411072;34;20646;-77
2021/10/11 03:31:16;;;;;;;70.78;35.83;;;;;;;7.92;85.41;101194.78;8410096;34;20615;-76
2021/10/11 03:36:19;;;;;;;63.20;32.88;;;;;;;7.95;85.82;101197.28;8412018;34;20433;-76
2021/10/11 03:41:24;;;;;;;62.03;33.95;;;;;;;7.89;86.06;101211.00;8412440;34;20836;-76
2021/10/11 03:46:27;;;;;;;68.20;34.38;;;;;;;8.01;86.24;101206.75;8412155;34;20632;-76
2021/10/11 03:51:30;;;;;;;64.13;36.00;;;;;;;8.16;86.08;101211.25;8403016;34;20290;-76
2021/10/11 03:56:34;;;;;;;55.97;33.92;;;;;;;8.31;86.11;101196.09;8425622;34;20261;-76
2021/10/11 04:01:38;;;;;;;67.25;34.08;;;;;;;8.31;85.88;101204.13;8422573;34;21046;-76
2021/10/11 04:06:41;;;;;;;68.80;34.42;;;;;;;8.35;85.80;101197.66;8412539;34;20310;-76
2021/10/11 04:11:45;;;;;;;67.07;33.58;;;;;;;8.36;86.15;101194.00;8389003;34;20228;-76
2021/10/11 04:16:48;;;;;;;66.43;34.97;;;;;;;8.42;86.29;101188.31;8386220;34;20516;-76
2021/10/11 04:21:51;;;;;;;65.32;36.50;;;;;;;8.53;86.10;101183.22;8386357;34;21277;-76
2021/10/11 04:26:56;;;;;;;61.53;31.05;;;;;;;8.50;86.14;101188.75;8410842;34;21150;-76
2021/10/11 04:31:59;;;;;;;67.75;33.70;;;;;;;8.58;86.44;101183.81;8410045;34;20241;-76
2021/10/11 04:37:02;;;;;;;64.15;33.05;;;;;;;8.65;86.25;101183.44;8386392;34;20439;-76
2021/10/11 04:42:06;;;;;;;59.65;32.53;;;;;;;8.65;86.55;101180.75;8409763;34;20146;-76
2021/10/11 04:47:09;;;;;;;63.08;32.10;;;;;;;8.65;86.68;101178.94;8411315;34;20434;-76
2021/10/11 04:52:12;;;;;;;68.43;33.75;;;;;;;8.71;86.42;101188.41;8409724;34;20974;-76
2021/10/11 04:57:17;;;;;;;61.78;32.15;;;;;;;8.67;86.48;101184.19;8409039;34;21241;-76
2021/10/11 05:02:20;;;;;;;64.03;31.65;;;;;;;8.71;86.70;101191.09;8411517;34;20642;-76
2021/10/11 05:07:23;;;;;;;61.97;32.78;;;;;;;8.74;86.64;101191.75;8403505;34;20149;-76
2021/10/11 05:12:28;;;;;;;56.45;30.92;;;;;;;8.82;87.10;101185.94;8398829;34;20142;-76
2021/10/11 05:17:31;;;;;;;55.83;29.58;;;;;;;8.65;86.51;101191.47;8400687;34;20425;-76
2021/10/11 05:22:34;;;;;;;60.35;31.10;;;;;;;8.57;86.41;101205.31;8403347;34;21082;-76
2021/10/11 05:27:39;;;;;;;52.65;29.40;;;;;;;8.63;86.70;101202.25;8407227;34;21133;-76
2021/10/11 05:32:43;;;;;;;62.03;29.38;;;;;;;8.73;86.91;101211.47;8410109;34;20241;-76
2021/10/11 05:37:46;;;;;;;55.92;28.67;;;;;;;8.75;86.65;101219.38;8402410;34;20235;-76
2021/10/11 05:42:50;;;;;;;56.45;29.13;;;;;;;8.73;86.59;101230.22;8403305;34;20224;-76
2021/10/11 05:47:54;;;;;;;55.08;28.00;;;;;;;8.75;86.76;101222.97;8409744;34;20890;-76
2021/10/11 05:52:58;;;;;;;50.58;26.45;;;;;;;8.80;86.77;101217.31;8421074;34;20219;-76
2021/10/11 05:58:02;;;;;;;52.95;26.95;;;;;;;8.83;86.75;101218.00;8429401;34;20161;-76
2021/10/11 06:03:06;;;;;;;50.88;25.23;;;;;;;8.84;86.71;101225.06;8428735;34;20139;-76
2021/10/11 06:08:09;;;;;;;55.88;27.75;;;;;;;8.85;86.92;101215.22;8429076;34;20197;-76
2021/10/11 06:13:14;;;;;;;21.58;11.18;;;;;;;8.86;87.14;101216.97;8430893;34;20195;-76
2021/10/11 06:18:17;;;;;;;48.78;23.08;;;;;;;8.96;87.07;101214.56;8411179;34;20518;-76
2021/10/11 06:23:20;;;;;;;52.65;25.90;;;;;;;9.11;86.74;101220.81;8433691;34;20447;-76
2021/10/11 06:28:25;;;;;;;52.45;27.00;;;;;;;9.17;86.96;101225.78;8429645;34;20934;-76
2021/10/11 06:33:28;;;;;;;53.38;25.40;;;;;;;9.22;87.24;101237.94;8416475;34;20233;-76
2021/10/11 06:38:31;;;;;;;55.55;28.10;;;;;;;9.22;86.76;101240.63;8427442;34;20607;-76
2021/10/11 06:43:36;;;;;;;49.35;25.75;;;;;;;9.20;86.82;101247.91;8419053;34;20451;-76
2021/10/11 06:48:39;;;;;;;54.83;26.63;;;;;;;9.36;87.09;101246.97;8414074;34;20157;-76
2021/10/11 06:53:42;;;;;;;42.92;21.95;;;;;;;9.35;86.94;101261.31;8417744;34;20138;-76
2021/10/11 06:58:46;;;;;;;47.58;23.92;;;;;;;9.38;87.20;101261.13;8415488;34;20692;-76
2021/10/11 07:03:49;;;;;;;43.47;22.27;;;;;;;9.37;86.60;101262.94;8413202;34;20966;-76
2021/10/11 07:08:53;;;;;;;42.10;20.88;;;;;;;9.48;86.66;101262.28;8415017;34;20467;-76
2021/10/11 07:13:57;;;;;;;41.10;18.92;;;;;;;9.56;85.77;101280.56;8413601;34;20238;-76
2021/10/11 07:19:15;;;;;;;35.50;18.70;;;;;;;9.68;85.90;101282.47;8411935;34;20434;-75
2021/10/11 07:24:18;;;;;;;39.08;18.70;;;;;;;9.77;85.89;101273.00;8412838;34;20983;-76
2021/10/11 07:29:22;;;;;;;32.03;17.52;;;;;;;9.81;85.61;101275.38;8413982;34;21057;-76
2021/10/11 07:34:25;;;;;;;27.60;16.15;;;;;;;9.82;84.98;101277.13;8412906;34;20953;-76
2021/10/11 07:39:28;;;;;;;29.85;15.63;;;;;;;10.02;84.37;101283.06;8422902;34;20500;-76
2021/10/11 07:44:33;;;;;;;32.42;15.05;;;;;;;10.05;84.07;101288.22;8421793;34;20430;-76
2021/10/11 07:49:37;;;;;;;32.15;14.85;;;;;;;9.98;83.77;101295.78;8426982;34;20245;-75
2021/10/11 07:54:40;;;;;;;27.88;14.23;;;;;;;10.00;83.61;101306.44;8427005;34;20220;-76
2021/10/11 07:59:44;;;;;;;27.15;13.45;;;;;;;10.23;83.78;101308.53;8419170;34;20141;-76
2021/10/11 08:04:47;;;;;;;28.58;14.18;;;;;;;10.48;82.29;101312.28;8418110;34;20240;-75
2021/10/11 08:09:50;;;;;;;19.83;11.75;;;;;;;10.52;81.85;101311.09;8427904;34;20236;-75
2021/10/11 08:14:55;;;;;;;19.25;10.32;;;;;;;10.84;81.59;101314.34;8416784;34;20997;-76
2021/10/11 08:19:58;;;;;;;20.63;10.57;;;;;;;11.16;80.05;101322.94;8445352;28;20234;-76
2021/10/11 08:25:01;;;;;;;13.90;7.78;;;;;;;10.99;79.79;101317.81;8491267;33;20442;-75
2021/10/11 08:30:08;;;;;;;16.27;7.43;;;;;;;11.30;77.52;101307.66;8483427;33;20400;-76
2021/10/11 08:35:11;;;;;;;10.65;5.65;;;;;;;11.25;77.01;101314.22;8523652;33;20145;-75
2021/10/11 08:40:15;;;;;;;11.82;5.85;;;;;;;11.51;74.52;101308.84;8523926;33;20239;-76
2021/10/11 08:45:19;;;;;;;10.13;4.68;;;;;;;11.26;74.60;101315.09;8525092;33;20676;-76
2021/10/11 08:50:22;;;;;;;9.77;4.40;;;;;;;10.97;77.06;101308.97;8525399;33;20541;-76
2021/10/11 08:55:25;;;;;;;11.70;5.40;;;;;;;10.83;77.17;101312.59;8524382;33;20505;-76
2021/10/11 09:00:33;;;;;;;11.93;4.97;;;;;;;10.36;77.74;101327.38;8524625;33;20600;-76
2021/10/11 09:05:40;;;;;;;12.35;5.38;;;;;;;10.72;78.35;101328.59;8525884;33;20851;-76
2021/10/11 09:10:53;;;;;;;15.02;6.50;;;;;;;10.57;77.75;101325.09;8525560;33;20438;-76
2021/10/11 09:16:11;;;;;;;13.88;5.05;;;;;;;11.02;78.48;101331.88;8528123;33;20445;-76
2021/10/11 09:21:14;;;;;;;6.22;3.78;;;;;;;11.30;76.74;101329.16;8524791;33;20210;-76
2021/10/11 09:26:21;;;;;;;8.25;3.97;;;;;;;11.38;75.80;101327.69;8521666;33;20482;-76
2021/10/11 09:31:39;;;;;;;8.90;3.90;;;;;;;11.37;73.88;101335.84;8521711;33;20203;-76
2021/10/11 09:36:43;;;;;;;13.70;5.07;;;;;;;11.39;76.26;101329.41;8495934;33;20407;-76
2021/10/11 09:41:51;;;;;;;10.82;5.70;;;;;;;11.72;76.93;101330.69;8518590;33;20145;-76
2021/10/11 09:46:57;;;;;;;12.63;5.90;;;;;;;12.27;78.25;101317.78;8517558;33;20276;-76
2021/10/11 09:52:01;;;;;;;13.48;6.85;;;;;;;11.80;73.17;101327.47;8521810;33;20917;-76
2021/10/11 09:57:04;;;;;;;13.13;6.43;;;;;;;12.14;74.04;101315.09;8500157;33;20159;-76
2021/10/11 10:02:09;;;;;;;15.00;7.05;;;;;;;12.47;73.75;101317.19;8526620;33;20442;-76
2021/10/11 10:07:16;;;;;;;14.60;6.80;;;;;;;12.13;71.97;101314.25;8525463;33;20133;-75
2021/10/11 10:12:19;;;;;;;14.38;7.53;;;;;;;12.84;70.75;101309.03;8500635;33;20445;-74
2021/10/11 10:17:31;;;;;;;15.23;6.30;;;;;;;12.46;72.82;101310.09;8523790;33;20461;-76
2021/10/11 10:22:34;;;;;;;12.18;6.22;;;;;;;12.58;73.05;101316.38;8524249;33;20656;-76
2021/10/11 10:27:40;;;;;;;16.38;6.07;;;;;;;12.60;76.33;101309.91;8524012;33;20279;-76
2021/10/11 10:32:55;;;;;;;12.00;5.47;;;;;;;12.97;73.93;101319.72;8528897;33;20192;-77
2021/10/11 10:37:58;;;;;;;12.82;4.30;;;;;;;13.50;71.82;101309.34;8529424;33;20242;-75
2021/10/11 10:43:12;;;;;;;14.27;5.28;;;;;;;14.24;66.99;101308.84;8524693;33;20429;-76
2021/10/11 10:48:23;;;;;;;11.63;4.47;;;;;;;14.33;66.18;101303.53;8520056;33;20236;-76
2021/10/11 10:53:28;;;;;;;10.38;4.13;;;;;;;13.69;67.51;101297.97;8517627;33;20897;-75
2021/10/11 10:58:31;;;;;;;10.13;3.90;;;;;;;13.29;70.14;101303.75;8493600;33;20411;-76
2021/10/11 11:03:36;;;;;;;10.88;3.75;;;;;;;13.94;71.42;101289.59;8518070;33;20518;-76
2021/10/11 11:08:39;;;;;;;13.45;3.63;;;;;;;15.58;67.66;101282.19;8521534;33;20549;-76
2021/10/11 11:13:43;;;;;;;9.23;3.97;;;;;;;15.01;63.03;101295.19;8522724;33;20438;-76
2021/10/11 11:18:53;;;;;;;8.07;3.85;;;;;;;14.62;62.37;101307.53;8520219;33;20145;-76
2021/10/11 11:23:56;;;;;;;16.17;5.05;;;;;;;13.97;64.19;101310.09;8494017;33;20468;-76
2021/10/11 11:28:59;;;;;;;9.35;3.88;;;;;;;13.34;63.48;101296.16;8516871;33;20428;-76
2021/10/11 11:34:07;;;;;;;5.55;2.97;;;;;;;14.27;65.36;101303.19;8520280;33;20410;-76
2021/10/11 11:39:12;;;;;;;6.20;3.88;;;;;;;14.04;62.95;101297.81;8520304;33;20682;-77
2021/10/11 11:44:24;;;;;;;7.72;2.70;;;;;;;14.77;63.45;101292.72;8522170;33;20470;-76
2021/10/11 11:49:28;;;;;;;5.75;2.20;;;;;;;15.37;58.58;101288.47;8520292;33;20140;-76
2021/10/11 11:54:31;;;;;;;8.60;2.42;;;;;;;14.12;60.41;101283.66;8517759;33;20580;-76
2021/10/11 11:59:39;;;;;;;7.10;2.33;;;;;;;14.03;62.88;101282.56;8522147;33;20536;-76
2021/10/11 12:04:45;;;;;;;7.55;2.00;;;;;;;13.93;61.54;101281.59;8517215;33;20512;-76
2021/10/11 12:09:50;;;;;;;8.65;2.03;;;;;;;13.74;62.01;101284.06;8520721;33;20444;-77
2021/10/11 12:14:53;;;;;;;9.25;2.35;;;;;;;13.83;61.79;101286.06;8530402;33;20141;-76
2021/10/11 12:19:59;;;;;;;6.93;2.00;;;;;;;14.23;59.44;101271.97;8528152;33;20152;-76
2021/10/11 12:25:07;;;;;;;3.72;1.60;;;;;;;14.06;58.28;101273.38;8523532;33;20423;-76
2021/10/11 12:30:11;;;;;;;3.83;1.70;;;;;;;14.43;57.39;101267.66;8517960;33;21228;-76
2021/10/11 12:35:23;;;;;;;10.57;1.92;;;;;;;13.56;58.81;101254.88;8518428;33;20994;-76
2021/10/11 12:40:26;;;;;;;4.82;1.42;;;;;;;13.37;58.67;101255.47;8521349;33;20191;-76
2021/10/11 12:45:29;;;;;;;6.85;2.55;;;;;;;15.10;57.13;101247.53;8526683;33;20176;-77
2021/10/11 12:50:33;;;;;;;6.90;1.77;;;;;;;14.88;55.71;101243.13;8528629;33;20155;-76
2021/10/11 12:55:36;;;;;;;3.85;1.23;;;;;;;14.01;57.59;101248.56;8503496;33;20397;-76
2021/10/11 13:00:39;;;;;;;8.35;1.73;;;;;;;14.67;56.70;101251.22;8527130;33;20469;-76
2021/10/11 13:05:44;;;;;;;7.38;1.88;;;;;;;13.89;56.99;101248.59;8525794;33;20414;-76
2021/10/11 13:10:47;;;;;;;4.40;1.45;;;;;;;12.82;59.40;101241.72;8520210;33;20254;-76
2021/10/11 13:15:50;;;;;;;4.75;1.50;;;;;;;14.60;56.26;101251.72;8518715;33;20152;-76
2021/10/11 13:20:54;;;;;;;4.65;1.60;;;;;;;16.50;51.14;101230.50;8494108;33;20164;-76
2021/10/11 13:25:57;;;;;;;5.93;1.42;;;;;;;17.75;47.44;101231.22;8520775;33;20415;-76
2021/10/11 14:30:24;;;;;;;3.08;1.23;;;;;;;19.10;43.26;101167.75;8440720;34;20177;-75
2021/10/11 16:01:19;;;;;;;4.13;1.58;;;;;;;10.93;78.30;101190.03;8412274;34;20521;-75
2021/10/11 16:06:25;;;;;;;5.85;1.65;;;;;;;10.70;78.18;101199.72;8388323;34;20417;-75
2021/10/11 16:11:33;;;;;;;5.93;1.85;;;;;;;10.29;78.61;101198.00;8411429;34;20257;-75
2021/10/11 16:16:37;;;;;;;4.90;1.63;;;;;;;10.03;79.06;101196.19;8412719;34;20563;-74
2021/10/11 16:21:40;;;;;;;5.97;1.58;;;;;;;10.06;79.50;101198.66;8425045;34;20423;-74
2021/10/11 16:26:43;;;;;;;3.03;1.45;;;;;;;9.93;79.22;101204.00;8412606;34;20617;-74
2021/10/11 16:31:50;;;;;;;5.30;2.00;;;;;;;10.00;77.78;101199.06;8413673;34;21198;-74
2021/10/11 16:36:54;;;;;;;2.60;1.60;;;;;;;10.11;77.96;101205.44;8410386;34;20233;-74
2021/10/11 16:41:57;;;;;;;5.70;1.42;;;;;;;10.22;76.64;101201.19;8407098;34;20221;-75
2021/10/11 16:47:02;;;;;;;3.45;1.90;;;;;;;10.32;76.29;101192.44;8406744;34;20193;-75
2021/10/11 16:52:06;;;;;;;5.47;1.88;;;;;;;10.21;76.68;101199.50;8382181;34;20149;-74
2021/10/11 16:57:11;;;;;;;4.57;1.75;;;;;;;10.06;76.60;101206.72;8402111;34;20213;-74
2021/10/11 17:02:19;;;;;;;3.42;1.60;;;;;;;10.19;75.92;101206.78;8405299;34;20459;-75
2021/10/11 17:07:23;;;;;;;3.97;1.88;;;;;;;10.22;77.06;101210.13;8404314;34;20569;-75
2021/10/11 17:12:27;;;;;;;4.10;1.80;;;;;;;10.16;78.10;101216.75;8403500;34;20153;-75
2021/10/11 17:17:32;;;;;;;5.38;1.83;;;;;;;9.88;76.33;101209.66;8380947;34;20527;-75
2021/10/11 17:22:35;;;;;;;4.05;1.60;;;;;;;9.80;76.81;101220.00;8405830;34;20418;-74
2021/10/11 17:27:39;;;;;;;3.08;1.60;;;;;;;9.70;76.05;101211.66;8404514;34;20516;-74
2021/10/11 17:32:45;;;;;;;3.03;1.50;;;;;;;9.60;76.80;101218.59;8403500;34;20468;-74
2021/10/11 17:37:48;;;;;;;5.65;2.05;;;;;;;9.62;77.20;101219.34;8398896;34;20225;-74
2021/10/11 17:42:51;;;;;;;4.25;2.10;;;;;;;9.50;77.06;101215.63;8405561;34;20154;-74
2021/10/11 17:47:56;;;;;;;1.83;1.58;;;;;;;9.65;77.73;101227.22;8407669;34;20867;-74
2021/10/11 17:52:59;;;;;;;4.78;2.25;;;;;;;9.61;77.47;101227.50;8416640;34;20989;-75
2021/10/11 17:58:02;;;;;;;2.65;1.70;;;;;;;9.48;77.81;101228.25;8427115;34;20995;-74
2021/10/11 18:03:06;;;;;;;7.68;2.35;;;;;;;9.57;78.74;101213.44;8426889;34;21250;-74
2021/10/11 18:08:10;;;;;;;6.10;2.00;;;;;;;9.58;78.81;101225.03;8423659;34;20514;-75
2021/10/11 18:13:13;;;;;;;4.40;2.00;;;;;;;9.32;78.83;101223.97;8415418;34;20529;-74
2021/10/11 18:18:20;;;;;;;6.95;1.88;;;;;;;9.23;78.57;101231.63;8410664;34;20574;-74
2021/10/11 18:23:24;;;;;;;5.13;1.70;;;;;;;9.28;79.59;101234.03;8409201;34;20691;-75
2021/10/11 18:28:27;;;;;;;6.93;2.47;;;;;;;9.21;79.08;101217.44;8408282;34;20153;-74
2021/10/11 18:33:34;;;;;;;2.83;1.77;;;;;;;9.41;80.27;101218.91;8405678;34;20563;-75
2021/10/11 18:38:37;;;;;;;6.78;2.50;;;;;;;9.47;79.43;101228.38;8407634;34;20430;-74
2021/10/11 18:43:41;;;;;;;4.57;2.35;;;;;;;9.23;79.15;101217.38;8402576;34;20474;-74
2021/10/11 18:48:46;;;;;;;3.67;2.40;;;;;;;9.17;79.58;101223.13;8406808;34;20174;-74
2021/10/11 18:53:49;;;;;;;5.25;2.25;;;;;;;9.20;79.19;101221.09;8408376;34;20147;-75
2021/10/11 18:58:52;;;;;;;4.68;2.33;;;;;;;9.32;80.23;101216.78;8410028;34;20273;-75
2021/10/11 19:03:57;;;;;;;4.80;2.63;;;;;;;9.39;80.07;101207.41;8414089;34;20524;-75
2021/10/11 19:09:01;;;;;;;3.58;1.80;;;;;;;9.49;79.41;101199.66;8412993;34;20427;-75
2021/10/11 19:14:04;;;;;;;6.88;2.47;;;;;;;9.22;79.29;101202.25;8412762;34;20625;-74
2021/10/11 19:19:09;;;;;;;4.25;2.10;;;;;;;9.31;79.75;101206.16;8412773;34;21098;-75
2021/10/11 19:24:13;;;;;;;7.80;3.05;;;;;;;9.45;79.62;101192.75;8406486;34;20142;-74
2021/10/11 19:29:16;;;;;;;4.40;2.78;;;;;;;9.45;80.20;101196.28;8402320;34;20169;-75
2021/10/11 19:34:20;;;;;;;5.35;2.58;;;;;;;9.01;80.21;101194.56;8401335;34;20237;-75
2021/10/11 19:39:23;;;;;;;5.78;2.78;;;;;;;9.08;80.32;101197.75;8399891;34;20964;-75
2021/10/11 19:44:27;;;;;;;4.28;2.78;;;;;;;8.97;80.01;101206.44;8399672;34;20491;-75
2021/10/11 19:49:31;;;;;;;5.53;2.55;;;;;;;9.05;80.36;101197.91;8399445;34;20245;-75
2021/10/11 19:54:34;;;;;;;4.65;2.50;;;;;;;8.87;80.42;101186.50;8400143;34;21057;-75
2021/10/11 19:59:37;;;;;;;3.88;2.20;;;;;;;8.65;80.63;101188.78;8402871;34;20428;-75
2021/10/11 20:04:41;;;;;;;6.47;2.72;;;;;;;8.75;80.18;101196.16;8407036;34;20938;-75
2021/10/11 20:09:45;;;;;;;5.30;2.33;;;;;;;8.77;80.76;101194.25;8440026;34;20449;-74
2021/10/11 20:14:48;;;;;;;3.60;2.03;;;;;;;8.70;80.82;101190.22;8430044;34;20142;-75
2021/10/11 20:19:53;;;;;;;3.75;2.38;;;;;;;8.41;81.13;101199.97;8430311;28;21080;-76
2021/10/11 20:24:57;;;;;;;4.03;2.42;;;;;;;8.35;81.19;101195.81;8383219;34;20444;-75
2021/10/11 20:30:00;;;;;;;5.15;2.08;;;;;;;8.29;81.31;101189.97;8392990;34;20681;-75
2021/10/11 20:35:05;;;;;;;4.28;2.42;;;;;;;8.30;81.32;101189.88;8416185;34;20336;-75
2021/10/11 20:40:11;;;;;;;5.60;2.80;;;;;;;8.21;81.81;101192.25;8417491;34;20425;-76
2021/10/11 20:45:14;;;;;;;3.45;2.03;;;;;;;8.22;81.60;101194.81;8430205;34;20241;-76
2021/10/11 20:50:18;;;;;;;5.05;2.88;;;;;;;8.28;81.35;101188.25;8421220;34;20508;-76
2021/10/11 20:55:22;;;;;;;5.25;2.33;;;;;;;8.11;81.58;101186.56;8415711;34;20422;-76
2021/10/11 21:00:25;;;;;;;5.10;2.40;;;;;;;8.06;81.68;101181.47;8392365;34;20572;-74
2021/10/11 21:05:29;;;;;;;5.32;2.75;;;;;;;7.83;81.86;101184.59;8410811;34;20253;-75
2021/10/11 21:10:33;;;;;;;4.53;2.80;;;;;;;7.94;81.53;101192.88;8414201;34;20497;-75
2021/10/11 21:15:36;;;;;;;5.35;2.67;;;;;;;7.91;81.69;101179.69;8418157;34;20178;-76
2021/10/11 21:20:40;;;;;;;5.57;2.45;;;;;;;7.75;81.94;101184.19;8431746;34;20147;-76
2021/10/11 21:25:44;;;;;;;8.77;3.05;;;;;;;7.72;82.30;101177.19;8427826;34;20444;-75
2021/10/11 21:30:47;;;;;;;6.65;2.60;;;;;;;7.72;82.34;101175.38;8393525;34;20217;-76
2021/10/11 21:35:51;;;;;;;5.65;2.83;;;;;;;7.68;82.22;101171.16;8428625;34;20476;-76
2021/10/11 21:40:54;;;;;;;4.10;2.60;;;;;;;7.66;82.07;101170.38;8417874;34;21088;-76
2021/10/11 21:45:57;;;;;;;5.95;3.08;;;;;;;7.44;82.83;101160.03;8426647;34;20496;-76
2021/10/11 21:51:02;;;;;;;8.15;2.92;;;;;;;7.52;82.64;101161.41;8404680;34;20154;-76
2021/10/11 21:56:06;;;;;;;6.63;3.08;;;;;;;7.51;82.99;101144.47;8415866;34;20194;-75
2021/10/11 22:01:09;;;;;;;5.15;2.58;;;;;;;7.59;82.33;101142.25;8413505;34;20154;-76
2021/10/11 22:06:14;;;;;;;5.68;3.22;;;;;;;7.62;81.90;101141.22;8413626;34;20202;-75
2021/10/11 22:11:18;;;;;;;9.00;3.17;;;;;;;7.52;82.98;101148.91;8413854;34;20467;-75
2021/10/11 22:16:21;;;;;;;7.72;2.92;;;;;;;7.42;82.97;101129.84;8415073;34;20209;-75
2021/10/11 22:21:26;;;;;;;8.88;3.17;;;;;;;7.46;83.41;101143.88;8404058;34;20476;-76
2021/10/11 22:26:29;;;;;;;4.45;3.50;;;;;;;7.43;82.84;101139.59;8430158;34;20909;-76
2021/10/11 22:31:33;;;;;;;9.05;4.50;;;;;;;7.74;82.61;101145.88;8436641;34;20135;-76
2021/10/11 22:36:38;;;;;;;13.63;4.28;;;;;;;7.75;82.15;101144.91;8436833;34;20138;-76
2021/10/11 22:41:41;;;;;;;10.38;4.57;;;;;;;7.82;82.12;101135.59;8437661;34;20234;-77
2021/10/11 22:46:44;;;;;;;9.93;4.35;;;;;;;7.69;82.14;101123.88;8436492;34;20162;-76
2021/10/11 22:51:58;;;;;;;10.10;4.80;;;;;;;7.63;82.26;101129.59;8418239;34;20405;-76
2021/10/11 22:57:01;;;;;;;8.68;4.57;;;;;;;7.64;82.32;101126.81;8433677;34;20220;-75
2021/10/11 23:02:05;;;;;;;11.00;4.75;;;;;;;7.69;82.22;101119.38;8432533;34;20129;-76
2021/10/11 23:07:10;;;;;;;12.48;5.03;;;;;;;7.47;82.52;101111.72;8436157;34;20245;-76
2021/10/11 23:12:13;;;;;;;8.32;4.75;;;;;;;7.11;84.09;101106.63;8430901;34;20414;-75
2021/10/11 23:17:16;;;;;;;11.27;4.40;;;;;;;7.28;83.70;101105.69;8430259;34;20457;-75
2021/10/11 23:22:22;;;;;;;8.48;3.88;;;;;;;7.30;83.63;101086.91;8430320;34;20880;-75
2021/10/11 23:27:25;;;;;;;7.65;4.07;;;;;;;7.27;83.72;101094.16;8406359;34;20368;-75
2021/10/11 23:32:28;;;;;;;9.07;5.38;;;;;;;7.36;83.74;101086.56;8405815;34;20139;-75
2021/10/11 23:37:32;;;;;;;14.75;5.60;;;;;;;7.41;83.40;101081.81;8414895;34;20278;-75
2021/10/11 23:42:36;;;;;;;9.30;5.60;;;;;;;7.46;83.67;101082.38;8391377;34;20534;-75
2021/10/11 23:47:39;;;;;;;11.00;5.28;;;;;;;7.41;83.48;101077.31;8415364;34;20150;-75
2021/10/11 23:52:43;;;;;;;9.75;5.72;;;;;;;7.46;82.78;101080.59;8414553;34;20532;-75
2021/10/11 23:57:46;;;;;;;10.57;6.10;;;;;;;7.60;82.84;101078.97;8410721;34;20429;-74
